sensor_id;sensor_type;location;lat;lon;timestamp;pressure;altitude;pressure_sealevel;temperature;humidity
13367;BME280;6752;52.612;13.630;2023-01-16T00:03:34;99356.91;;;6.02;100.00
13367;BME280;6752;52.612;13.630;2023-01-16T00:08:36;99346.32;;;5.92;100.00
13367;BME280;6752;52.612;13.630;2023-01-16T00:13:38;99345.64;;;6.05;100.00
13367;BME280;6752;52.612;13.630;2023-01-16T00:18:41;99346.95;;;5.99;100.00
13367;BME280;6752;52.612;13.630;2023-01-16T00:23:43;99337.00;;;6.15;99.90
13367;BME280;6752;52.612;13.630;2023-01-16T00:28:45;99347.26;;;6.10;99.62
13367;BME280;6752;52.612;13.630;2023-01-16T00:33:48;99342.63;;;6.13;99.86
13367;BME280;6752;52.612;13.630;2023-01-16T00:38:50;99340.09;;;6.28;98.95
13367;BME280;6752;52.612;13.630;2023-01-16T00:43:52;99344.92;;;6.17;99.10
13367;BME280;6752;52.612;13.630;2023-01-16T00:48:55;99346.67;;;6.26;98.60
13367;BME280;6752;52.612;13.630;2023-01-16T00:53:57;99346.13;;;6.39;98.67
13367;BME280;6752;52.612;13.630;2023-01-16T00:59:00;99346.83;;;6.22;98.60
13367;BME280;6752;52.612;13.630;2023-01-16T01:04:02;99356.56;;;6.17;99.24
13367;BME280;6752;52.612;13.630;2023-01-16T01:09:04;99356.75;;;6.28;98.83
13367;BME280;6752;52.612;13.630;2023-01-16T01:14:08;99356.75;;;6.19;98.12
13367;BME280;6752;52.612;13.630;2023-01-16T01:19:11;99349.28;;;6.14;98.54
13367;BME280;6752;52.612;13.630;2023-01-16T01:24:16;99357.99;;;6.20;99.00
13367;BME280;6752;52.612;13.630;2023-01-16T01:29:18;99356.04;;;6.18;99.97
13367;BME280;6752;52.612;13.630;2023-01-16T01:34:21;99355.03;;;6.12;100.00
13367;BME280;6752;52.612;13.630;2023-01-16T01:39:23;99352.70;;;6.06;100.00
13367;BME280;6752;52.612;13.630;2023-01-16T01:49:49;99345.72;;;5.74;100.00
13367;BME280;6752;52.612;13.630;2023-01-16T01:54:55;99353.73;;;5.59;100.00
13367;BME280;6752;52.612;13.630;2023-01-16T02:00:12;99346.83;;;5.26;100.00
13367;BME280;6752;52.612;13.630;2023-01-16T02:05:12;99352.09;;;5.30;100.00
13367;BME280;6752;52.612;13.630;2023-01-16T02:15:23;99354.09;;;5.28;100.00
13367;BME280;6752;52.612;13.630;2023-01-16T02:20:25;99362.59;;;5.13;100.00
13367;BME280;6752;52.612;13.630;2023-01-16T02:31:06;99342.40;;;5.22;100.00
13367;BME280;6752;52.612;13.630;2023-01-16T02:41:31;99328.80;;;5.16;100.00
13367;BME280;6752;52.612;13.630;2023-01-16T02:46:45;99316.84;;;5.18;100.00
13367;BME280;6752;52.612;13.630;2023-01-16T02:51:50;99310.50;;;5.06;100.00
13367;BME280;6752;52.612;13.630;2023-01-16T02:57:03;99307.48;;;4.89;100.00
13367;BME280;6752;52.612;13.630;2023-01-16T03:01:57;99303.80;;;4.99;100.00
13367;BME280;6752;52.612;13.630;2023-01-16T03:07:02;99298.27;;;5.16;100.00
13367;BME280;6752;52.612;13.630;2023-01-16T03:12:30;99284.95;;;4.89;100.00
13367;BME280;6752;52.612;13.630;2023-01-16T03:27:50;99279.64;;;4.92;100.00
13367;BME280;6752;52.612;13.630;2023-01-16T03:32:54;99275.78;;;4.93;100.00
13367;BME280;6752;52.612;13.630;2023-01-16T03:37:54;99264.98;;;4.81;100.00
13367;BME280;6752;52.612;13.630;2023-01-16T03:43:02;99256.19;;;4.76;100.00
13367;BME280;6752;52.612;13.630;2023-01-16T03:48:13;99253.64;;;4.66;100.00
13367;BME280;6752;52.612;13.630;2023-01-16T03:53:15;99248.63;;;4.69;100.00
13367;BME280;6752;52.612;13.630;2023-01-16T03:58:21;99245.52;;;4.69;100.00
13367;BME280;6752;52.612;13.630;2023-01-16T04:03:31;99240.34;;;4.68;100.00
13367;BME280;6752;52.612;13.630;2023-01-16T04:08:33;99237.74;;;4.54;100.00
13367;BME280;6752;52.612;13.630;2023-01-16T04:13:34;99238.56;;;4.74;100.00
13367;BME280;6752;52.612;13.630;2023-01-16T04:18:36;99213.66;;;4.69;100.00
13367;BME280;6752;52.612;13.630;2023-01-16T04:23:40;99217.92;;;4.67;100.00
13367;BME280;6752;52.612;13.630;2023-01-16T04:28:42;99210.73;;;4.70;100.00
13367;BME280;6752;52.612;13.630;2023-01-16T04:33:45;99203.80;;;4.68;100.00
13367;BME280;6752;52.612;13.630;2023-01-16T04:38:47;99194.30;;;4.50;100.00
13367;BME280;6752;52.612;13.630;2023-01-16T04:43:54;99191.59;;;4.62;100.00
13367;BME280;6752;52.612;13.630;2023-01-16T04:48:52;99185.05;;;4.52;100.00
13367;BME280;6752;52.612;13.630;2023-01-16T04:54:00;99180.28;;;4.51;100.00
13367;BME280;6752;52.612;13.630;2023-01-16T04:59:01;99170.52;;;4.34;100.00
13367;BME280;6752;52.612;13.630;2023-01-16T05:04:04;99157.16;;;4.14;100.00
13367;BME280;6752;52.612;13.630;2023-01-16T05:09:06;99159.78;;;4.08;100.00
13367;BME280;6752;52.612;13.630;2023-01-16T05:14:08;99160.64;;;3.99;100.00
13367;BME280;6752;52.612;13.630;2023-01-16T05:19:11;99169.42;;;3.88;100.00
13367;BME280;6752;52.612;13.630;2023-01-16T05:24:13;99158.95;;;3.89;100.00
13367;BME280;6752;52.612;13.630;2023-01-16T05:29:15;99152.46;;;3.80;100.00
13367;BME280;6752;52.612;13.630;2023-01-16T05:34:18;99144.41;;;3.93;100.00
13367;BME280;6752;52.612;13.630;2023-01-16T05:39:20;99139.90;;;3.84;100.00
13367;BME280;6752;52.612;13.630;2023-01-16T05:44:22;99134.14;;;3.92;100.00
13367;BME280;6752;52.612;13.630;2023-01-16T05:49:24;99134.16;;;3.89;100.00
13367;BME280;6752;52.612;13.630;2023-01-16T05:54:26;99143.47;;;3.93;100.00
13367;BME280;6752;52.612;13.630;2023-01-16T05:59:29;99143.16;;;3.92;100.00
13367;BME280;6752;52.612;13.630;2023-01-16T06:04:31;99135.06;;;3.95;100.00
13367;BME280;6752;52.612;13.630;2023-01-16T06:09:34;99128.27;;;4.02;100.00
13367;BME280;6752;52.612;13.630;2023-01-16T06:14:37;99122.10;;;3.95;100.00
13367;BME280;6752;52.612;13.630;2023-01-16T06:19:40;99121.60;;;4.11;100.00
13367;BME280;6752;52.612;13.630;2023-01-16T06:24:42;99110.30;;;4.12;100.00
13367;BME280;6752;52.612;13.630;2023-01-16T06:29:44;99105.53;;;4.10;100.00
13367;BME280;6752;52.612;13.630;2023-01-16T06:34:47;99106.84;;;3.98;100.00
13367;BME280;6752;52.612;13.630;2023-01-16T06:39:52;99098.02;;;4.03;100.00
13367;BME280;6752;52.612;13.630;2023-01-16T06:45:05;99094.81;;;3.78;100.00
13367;BME280;6752;52.612;13.630;2023-01-16T06:50:07;99088.94;;;3.79;100.00
13367;BME280;6752;52.612;13.630;2023-01-16T06:55:10;99099.08;;;3.80;100.00
13367;BME280;6752;52.612;13.630;2023-01-16T07:00:12;99087.39;;;3.93;100.00
13367;BME280;6752;52.612;13.630;2023-01-16T07:05:14;99086.95;;;3.80;100.00
13367;BME280;6752;52.612;13.630;2023-01-16T07:10:17;99082.80;;;3.77;100.00
13367;BME280;6752;52.612;13.630;2023-01-16T07:15:19;99083.30;;;3.64;100.00
13367;BME280;6752;52.612;13.630;2023-01-16T07:20:41;99075.43;;;3.63;100.00
13367;BME280;6752;52.612;13.630;2023-01-16T07:26:04;99072.67;;;3.73;100.00
13367;BME280;6752;52.612;13.630;2023-01-16T07:31:06;99067.98;;;3.81;100.00
13367;BME280;6752;52.612;13.630;2023-01-16T07:36:08;99071.17;;;3.83;100.00
13367;BME280;6752;52.612;13.630;2023-01-16T07:41:10;99064.95;;;3.83;100.00
13367;BME280;6752;52.612;13.630;2023-01-16T07:46:13;99063.41;;;3.97;100.00
13367;BME280;6752;52.612;13.630;2023-01-16T07:51:16;99060.43;;;3.93;100.00
13367;BME280;6752;52.612;13.630;2023-01-16T07:56:18;99054.22;;;3.92;100.00
13367;BME280;6752;52.612;13.630;2023-01-16T08:01:21;99054.75;;;4.07;100.00
13367;BME280;6752;52.612;13.630;2023-01-16T08:06:23;99040.91;;;3.97;100.00
13367;BME280;6752;52.612;13.630;2023-01-16T08:11:25;99039.17;;;3.94;100.00
13367;BME280;6752;52.612;13.630;2023-01-16T08:16:46;99031.74;;;3.89;100.00
13367;BME280;6752;52.612;13.630;2023-01-16T08:21:48;99028.50;;;3.93;100.00
13367;BME280;6752;52.612;13.630;2023-01-16T08:26:51;99023.55;;;4.06;100.00
13367;BME280;6752;52.612;13.630;2023-01-16T08:31:54;99012.73;;;4.09;100.00
13367;BME280;6752;52.612;13.630;2023-01-16T08:36:56;99003.59;;;4.10;100.00
13367;BME280;6752;52.612;13.630;2023-01-16T08:42:05;98989.38;;;3.96;100.00
13367;BME280;6752;52.612;13.630;2023-01-16T08:47:25;98985.27;;;4.19;100.00
13367;BME280;6752;52.612;13.630;2023-01-16T08:52:46;98956.05;;;4.28;100.00
13367;BME280;6752;52.612;13.630;2023-01-16T08:57:48;98943.63;;;4.91;100.00
13367;BME280;6752;52.612;13.630;2023-01-16T09:02:51;98935.52;;;5.60;100.00
13367;BME280;6752;52.612;13.630;2023-01-16T09:07:54;98939.16;;;5.09;100.00
13367;BME280;6752;52.612;13.630;2023-01-16T09:13:12;98911.27;;;5.63;100.00
13367;BME280;6752;52.612;13.630;2023-01-16T09:18:33;98912.59;;;6.05;96.94
13367;BME280;6752;52.612;13.630;2023-01-16T09:23:35;98890.74;;;6.81;94.16
13367;BME280;6752;52.612;13.630;2023-01-16T09:28:38;98880.31;;;7.01;89.17
13367;BME280;6752;52.612;13.630;2023-01-16T09:33:40;98878.74;;;7.48;88.14
13367;BME280;6752;52.612;13.630;2023-01-16T09:38:42;98868.89;;;7.34;83.52
13367;BME280;6752;52.612;13.630;2023-01-16T09:43:46;98857.47;;;7.40;81.17
13367;BME280;6752;52.612;13.630;2023-01-16T09:53:54;98842.88;;;8.30;81.25
13367;BME280;6752;52.612;13.630;2023-01-16T10:04:22;98811.64;;;8.08;75.97
13367;BME280;6752;52.612;13.630;2023-01-16T10:09:36;98797.72;;;8.87;75.42
13367;BME280;6752;52.612;13.630;2023-01-16T10:25:21;98771.27;;;8.91;72.68
13367;BME280;6752;52.612;13.630;2023-01-16T10:30:38;98777.06;;;8.61;70.94
13367;BME280;6752;52.612;13.630;2023-01-16T10:35:45;98758.52;;;8.53;70.03
13367;BME280;6752;52.612;13.630;2023-01-16T10:40:50;98742.69;;;8.86;70.17
13367;BME280;6752;52.612;13.630;2023-01-16T10:45:52;98719.23;;;9.22;68.93
13367;BME280;6752;52.612;13.630;2023-01-16T10:51:04;98720.30;;;9.72;67.97
13367;BME280;6752;52.612;13.630;2023-01-16T10:56:06;98704.66;;;9.18;68.32
13367;BME280;6752;52.612;13.630;2023-01-16T11:01:13;98688.48;;;9.35;67.01
13367;BME280;6752;52.612;13.630;2023-01-16T11:06:23;98686.40;;;9.27;65.66
13367;BME280;6752;52.612;13.630;2023-01-16T11:11:25;98660.91;;;11.52;65.34
13367;BME280;6752;52.612;13.630;2023-01-16T11:16:45;98644.03;;;9.54;65.89
13367;BME280;6752;52.612;13.630;2023-01-16T11:22:23;98646.05;;;10.13;65.75
13367;BME280;6752;52.612;13.630;2023-01-16T11:27:34;98628.63;;;10.16;63.89
13367;BME280;6752;52.612;13.630;2023-01-16T11:32:35;98618.00;;;10.49;63.57
13367;BME280;6752;52.612;13.630;2023-01-16T11:37:42;98599.35;;;10.97;60.10
13367;BME280;6752;52.612;13.630;2023-01-16T11:42:55;98590.14;;;10.19;64.15
13367;BME280;6752;52.612;13.630;2023-01-16T11:48:24;98576.37;;;8.97;66.81
13367;BME280;6752;52.612;13.630;2023-01-16T11:53:30;98569.72;;;9.17;68.17
13367;BME280;6752;52.612;13.630;2023-01-16T12:04:06;98552.22;;;8.77;69.23
13367;BME280;6752;52.612;13.630;2023-01-16T12:09:18;98539.72;;;8.30;70.22
13367;BME280;6752;52.612;13.630;2023-01-16T12:25:05;98521.08;;;8.53;70.02
13367;BME280;6752;52.612;13.630;2023-01-16T12:30:19;98503.34;;;8.29;69.13
13367;BME280;6752;52.612;13.630;2023-01-16T12:40:53;98481.73;;;8.55;69.29
13367;BME280;6752;52.612;13.630;2023-01-16T12:46:02;98463.48;;;8.51;68.80
13367;BME280;6752;52.612;13.630;2023-01-16T12:51:25;98455.31;;;8.29;68.61
13367;BME280;6752;52.612;13.630;2023-01-16T12:56:43;98443.59;;;8.26;67.93
13367;BME280;6752;52.612;13.630;2023-01-16T13:01:44;98425.11;;;8.21;68.32
13367;BME280;6752;52.612;13.630;2023-01-16T13:06:56;98418.15;;;8.33;69.04
13367;BME280;6752;52.612;13.630;2023-01-16T13:12:25;98398.54;;;8.25;71.05
13367;BME280;6752;52.612;13.630;2023-01-16T13:17:52;98379.86;;;7.92;72.37
13367;BME280;6752;52.612;13.630;2023-01-16T13:23:03;98381.27;;;7.99;76.14
13367;BME280;6752;52.612;13.630;2023-01-16T13:28:17;98368.59;;;7.76;76.57
13367;BME280;6752;52.612;13.630;2023-01-16T13:33:20;98369.09;;;7.70;76.98
13367;BME280;6752;52.612;13.630;2023-01-16T13:38:31;98365.31;;;7.71;76.84
13367;BME280;6752;52.612;13.630;2023-01-16T13:43:31;98358.95;;;7.74;76.46
13367;BME280;6752;52.612;13.630;2023-01-16T13:48:41;98351.73;;;7.68;76.08
13367;BME280;6752;52.612;13.630;2023-01-16T13:53:50;98344.77;;;7.62;76.22
13367;BME280;6752;52.612;13.630;2023-01-16T13:59:05;98336.11;;;7.49;76.59
13367;BME280;6752;52.612;13.630;2023-01-16T14:14:23;98303.63;;;7.35;79.88
13367;BME280;6752;52.612;13.630;2023-01-16T14:19:26;98295.10;;;7.24;79.48
13367;BME280;6752;52.612;13.630;2023-01-16T14:24:28;98292.03;;;7.29;79.44
13367;BME280;6752;52.612;13.630;2023-01-16T14:29:34;98284.73;;;7.13;79.66
13367;BME280;6752;52.612;13.630;2023-01-16T14:34:52;98285.66;;;7.00;80.24
13367;BME280;6752;52.612;13.630;2023-01-16T14:39:55;98278.61;;;6.99;82.51
13367;BME280;6752;52.612;13.630;2023-01-16T14:50:38;98268.36;;;6.76;83.61
13367;BME280;6752;52.612;13.630;2023-01-16T14:55:50;98252.61;;;6.71;83.09
13367;BME280;6752;52.612;13.630;2023-01-16T15:00:51;98244.95;;;6.63;84.83
13367;BME280;6752;52.612;13.630;2023-01-16T15:05:55;98239.46;;;6.57;84.71
13367;BME280;6752;52.612;13.630;2023-01-16T15:10:57;98222.53;;;6.56;85.40
13367;BME280;6752;52.612;13.630;2023-01-16T15:16:00;98237.22;;;6.49;85.58
13367;BME280;6752;52.612;13.630;2023-01-16T15:21:14;98239.11;;;6.49;85.92
13367;BME280;6752;52.612;13.630;2023-01-16T15:26:44;98233.56;;;6.39;86.41
13367;BME280;6752;52.612;13.630;2023-01-16T15:31:43;98224.20;;;6.46;86.16
13367;BME280;6752;52.612;13.630;2023-01-16T15:36:45;98224.30;;;6.32;85.59
13367;BME280;6752;52.612;13.630;2023-01-16T15:41:50;98212.58;;;6.24;86.85
13367;BME280;6752;52.612;13.630;2023-01-16T15:47:33;98210.54;;;6.23;86.22
13367;BME280;6752;52.612;13.630;2023-01-16T15:52:32;98206.33;;;6.21;86.70
13367;BME280;6752;52.612;13.630;2023-01-16T15:57:34;98204.13;;;6.18;86.80
13367;BME280;6752;52.612;13.630;2023-01-16T16:02:40;98202.03;;;6.14;86.79
13367;BME280;6752;52.612;13.630;2023-01-16T16:07:40;98185.34;;;6.09;86.69
13367;BME280;6752;52.612;13.630;2023-01-16T16:12:43;98179.95;;;5.98;86.44
13367;BME280;6752;52.612;13.630;2023-01-16T16:17:45;98164.23;;;5.95;86.83
13367;BME280;6752;52.612;13.630;2023-01-16T16:23:13;98158.86;;;5.97;87.45
13367;BME280;6752;52.612;13.630;2023-01-16T16:28:26;98158.76;;;6.00;87.93
13367;BME280;6752;52.612;13.630;2023-01-16T16:33:18;98148.61;;;5.99;87.01
13367;BME280;6752;52.612;13.630;2023-01-16T16:38:29;98146.93;;;5.87;88.05
13367;BME280;6752;52.612;13.630;2023-01-16T16:43:46;98137.77;;;5.77;88.86
13367;BME280;6752;52.612;13.630;2023-01-16T16:48:54;98135.19;;;5.77;89.27
13367;BME280;6752;52.612;13.630;2023-01-16T16:54:00;98139.75;;;5.74;88.72
13367;BME280;6752;52.612;13.630;2023-01-16T16:59:01;98141.73;;;5.70;88.75
13367;BME280;6752;52.612;13.630;2023-01-16T17:04:04;98122.94;;;5.69;88.96
13367;BME280;6752;52.612;13.630;2023-01-16T17:09:08;98110.44;;;5.65;88.92
13367;BME280;6752;52.612;13.630;2023-01-16T17:14:08;98102.53;;;5.59;89.64
13367;BME280;6752;52.612;13.630;2023-01-16T17:19:29;98091.28;;;5.56;89.07
13367;BME280;6752;52.612;13.630;2023-01-16T17:24:40;98084.56;;;5.59;89.49
13367;BME280;6752;52.612;13.630;2023-01-16T17:29:42;98074.75;;;5.63;89.37
13367;BME280;6752;52.612;13.630;2023-01-16T17:34:49;98055.27;;;5.48;90.00
13367;BME280;6752;52.612;13.630;2023-01-16T17:39:52;98058.43;;;5.53;89.03
13367;BME280;6752;52.612;13.630;2023-01-16T17:44:56;98063.20;;;5.57;87.92
13367;BME280;6752;52.612;13.630;2023-01-16T17:50:17;98057.89;;;5.54;88.71
13367;BME280;6752;52.612;13.630;2023-01-16T17:55:22;98057.45;;;5.51;89.53
13367;BME280;6752;52.612;13.630;2023-01-16T18:00:43;98060.97;;;5.30;90.85
13367;BME280;6752;52.612;13.630;2023-01-16T18:05:45;98065.77;;;5.17;91.10
13367;BME280;6752;52.612;13.630;2023-01-16T18:10:49;98045.80;;;5.26;91.10
13367;BME280;6752;52.612;13.630;2023-01-16T18:15:52;98051.27;;;5.31;91.00
13367;BME280;6752;52.612;13.630;2023-01-16T18:21:10;98044.66;;;5.33;91.15
13367;BME280;6752;52.612;13.630;2023-01-16T18:26:29;98044.98;;;5.36;89.68
13367;BME280;6752;52.612;13.630;2023-01-16T18:31:31;98039.56;;;5.45;89.22
13367;BME280;6752;52.612;13.630;2023-01-16T18:36:37;98019.61;;;5.48;88.39
13367;BME280;6752;52.612;13.630;2023-01-16T18:41:39;98011.84;;;5.54;87.71
13367;BME280;6752;52.612;13.630;2023-01-16T18:47:00;98008.50;;;5.58;88.08
13367;BME280;6752;52.612;13.630;2023-01-16T18:52:21;98010.16;;;5.62;87.18
13367;BME280;6752;52.612;13.630;2023-01-16T18:57:41;98018.03;;;5.66;85.92
13367;BME280;6752;52.612;13.630;2023-01-16T19:03:04;97998.45;;;5.67;84.85
13367;BME280;6752;52.612;13.630;2023-01-16T19:08:06;97981.40;;;5.64;85.25
13367;BME280;6752;52.612;13.630;2023-01-16T19:13:08;97973.72;;;5.67;84.55
13367;BME280;6752;52.612;13.630;2023-01-16T19:18:11;97971.89;;;5.59;85.06
13367;BME280;6752;52.612;13.630;2023-01-16T19:23:13;97952.92;;;5.67;84.74
13367;BME280;6752;52.612;13.630;2023-01-16T19:28:15;97952.83;;;5.68;84.85
13367;BME280;6752;52.612;13.630;2023-01-16T19:33:18;97933.12;;;5.70;84.89
13367;BME280;6752;52.612;13.630;2023-01-16T19:38:20;97919.26;;;5.78;84.45
13367;BME280;6752;52.612;13.630;2023-01-16T19:43:23;97913.69;;;5.73;84.16
13367;BME280;6752;52.612;13.630;2023-01-16T19:48:43;97910.48;;;5.65;84.92
13367;BME280;6752;52.612;13.630;2023-01-16T19:53:45;97903.84;;;5.62;85.12
13367;BME280;6752;52.612;13.630;2023-01-16T19:58:48;97895.98;;;5.61;85.28
13367;BME280;6752;52.612;13.630;2023-01-16T20:03:50;97884.86;;;5.68;85.15
13367;BME280;6752;52.612;13.630;2023-01-16T20:08:52;97868.44;;;5.61;85.63
13367;BME280;6752;52.612;13.630;2023-01-16T20:13:55;97869.48;;;5.58;85.90
13367;BME280;6752;52.612;13.630;2023-01-16T20:18:58;97856.48;;;5.52;86.32
13367;BME280;6752;52.612;13.630;2023-01-16T20:24:01;97838.79;;;5.53;86.08
13367;BME280;6752;52.612;13.630;2023-01-16T20:29:05;97822.60;;;5.55;85.94
13367;BME280;6752;52.612;13.630;2023-01-16T20:34:07;97820.84;;;5.55;85.49
13367;BME280;6752;52.612;13.630;2023-01-16T20:39:12;97797.77;;;5.42;85.79
13367;BME280;6752;52.612;13.630;2023-01-16T20:44:16;97800.80;;;5.32;87.20
13367;BME280;6752;52.612;13.630;2023-01-16T20:49:34;97798.11;;;5.35;86.43
13367;BME280;6752;52.612;13.630;2023-01-16T20:54:37;97776.93;;;5.38;87.01
13367;BME280;6752;52.612;13.630;2023-01-16T20:59:40;97769.20;;;5.33;86.90
13367;BME280;6752;52.612;13.630;2023-01-16T21:04:42;97760.62;;;5.41;86.39
13367;BME280;6752;52.612;13.630;2023-01-16T21:09:58;97752.20;;;5.35;86.92
13367;BME280;6752;52.612;13.630;2023-01-16T21:15:00;97766.48;;;5.17;87.90
13367;BME280;6752;52.612;13.630;2023-01-16T21:20:03;97755.94;;;5.29;87.65
13367;BME280;6752;52.612;13.630;2023-01-16T21:25:31;97752.45;;;5.17;88.20
13367;BME280;6752;52.612;13.630;2023-01-16T21:30:33;97742.94;;;5.23;88.41
13367;BME280;6752;52.612;13.630;2023-01-16T21:35:42;97724.34;;;5.13;89.41
13367;BME280;6752;52.612;13.630;2023-01-16T21:40:44;97728.67;;;5.14;89.51
13367;BME280;6752;52.612;13.630;2023-01-16T21:45:49;97703.64;;;5.21;90.12
13367;BME280;6752;52.612;13.630;2023-01-16T21:51:09;97699.91;;;5.12;90.73
13367;BME280;6752;52.612;13.630;2023-01-16T21:56:12;97692.77;;;5.14;90.92
13367;BME280;6752;52.612;13.630;2023-01-16T22:01:14;97692.51;;;5.15;90.38
13367;BME280;6752;52.612;13.630;2023-01-16T22:06:16;97690.73;;;5.13;90.41
13367;BME280;6752;52.612;13.630;2023-01-16T22:11:18;97688.42;;;5.10;89.98
13367;BME280;6752;52.612;13.630;2023-01-16T22:16:39;97677.09;;;5.11;90.96
13367;BME280;6752;52.612;13.630;2023-01-16T22:22:08;97670.20;;;5.12;91.11
13367;BME280;6752;52.612;13.630;2023-01-16T22:27:11;97666.94;;;5.07;91.52
13367;BME280;6752;52.612;13.630;2023-01-16T22:32:13;97660.06;;;5.08;91.86
13367;BME280;6752;52.612;13.630;2023-01-16T22:37:16;97667.31;;;5.02;92.56
13367;BME280;6752;52.612;13.630;2023-01-16T22:42:18;97651.49;;;4.97;92.91
13367;BME280;6752;52.612;13.630;2023-01-16T22:47:20;97652.63;;;5.06;93.07
13367;BME280;6752;52.612;13.630;2023-01-16T22:52:23;97650.18;;;5.02;93.37
13367;BME280;6752;52.612;13.630;2023-01-16T22:57:25;97648.06;;;4.93;93.98
13367;BME280;6752;52.612;13.630;2023-01-16T23:02:30;97633.01;;;4.98;94.05
13367;BME280;6752;52.612;13.630;2023-01-16T23:07:37;97639.00;;;5.07;94.23
13367;BME280;6752;52.612;13.630;2023-01-16T23:12:40;97634.12;;;5.04;94.26
13367;BME280;6752;52.612;13.630;2023-01-16T23:17:42;97615.29;;;4.96;94.44
13367;BME280;6752;52.612;13.630;2023-01-16T23:22:45;97600.64;;;5.00;94.53
13367;BME280;6752;52.612;13.630;2023-01-16T23:27:47;97585.06;;;4.96;95.18
13367;BME280;6752;52.612;13.630;2023-01-16T23:32:50;97591.64;;;4.89;96.35
13367;BME280;6752;52.612;13.630;2023-01-16T23:37:52;97572.59;;;5.04;96.26
13367;BME280;6752;52.612;13.630;2023-01-16T23:42:54;97564.42;;;4.96;95.76
13367;BME280;6752;52.612;13.630;2023-01-16T23:48:15;97567.98;;;5.02;95.10
13367;BME280;6752;52.612;13.630;2023-01-16T23:53:18;97551.91;;;4.98;95.20
13367;BME280;6752;52.612;13.630;2023-01-16T23:58:20;97540.47;;;5.05;95.30
